sensor_id;sensor_type;location;lat;lon;timestamp;temperature;humidity
14192;DHT22;7177;48.572;7.838;2023-02-28T00:00:11;0.00;99.90
14192;DHT22;7177;48.572;7.838;2023-02-28T00:02:41;0.00;99.90
14192;DHT22;7177;48.572;7.838;2023-02-28T00:05:08;-0.10;99.90
14192;DHT22;7177;48.572;7.838;2023-02-28T00:07:35;-0.10;99.90
14192;DHT22;7177;48.572;7.838;2023-02-28T00:10:01;-0.20;99.90
14192;DHT22;7177;48.572;7.838;2023-02-28T00:12:27;-0.20;99.90
14192;DHT22;7177;48.572;7.838;2023-02-28T00:14:52;-0.10;99.90
14192;DHT22;7177;48.572;7.838;2023-02-28T00:17:19;-0.10;99.90
14192;DHT22;7177;48.572;7.838;2023-02-28T00:19:47;-0.20;99.90
14192;DHT22;7177;48.572;7.838;2023-02-28T00:22:14;-0.20;99.90
14192;DHT22;7177;48.572;7.838;2023-02-28T00:24:39;-0.30;99.90
14192;DHT22;7177;48.572;7.838;2023-02-28T00:27:05;-0.30;99.90
14192;DHT22;7177;48.572;7.838;2023-02-28T00:29:30;-0.30;99.90
14192;DHT22;7177;48.572;7.838;2023-02-28T00:31:56;-0.40;99.90
14192;DHT22;7177;48.572;7.838;2023-02-28T00:34:21;-0.40;99.90
14192;DHT22;7177;48.572;7.838;2023-02-28T00:36:46;-0.30;99.90
14192;DHT22;7177;48.572;7.838;2023-02-28T00:39:16;-0.40;99.90
14192;DHT22;7177;48.572;7.838;2023-02-28T00:41:41;-0.50;99.90
14192;DHT22;7177;48.572;7.838;2023-02-28T00:44:07;-0.50;99.90
14192;DHT22;7177;48.572;7.838;2023-02-28T00:46:32;-0.50;99.90
14192;DHT22;7177;48.572;7.838;2023-02-28T00:48:58;-0.50;99.90
14192;DHT22;7177;48.572;7.838;2023-02-28T00:51:24;-0.50;99.90
14192;DHT22;7177;48.572;7.838;2023-02-28T00:53:49;-0.50;99.90
14192;DHT22;7177;48.572;7.838;2023-02-28T00:56:15;-0.50;99.90
14192;DHT22;7177;48.572;7.838;2023-02-28T00:58:40;-0.50;99.90
14192;DHT22;7177;48.572;7.838;2023-02-28T01:01:06;-0.50;99.90
14192;DHT22;7177;48.572;7.838;2023-02-28T01:03:31;-0.40;99.90
14192;DHT22;7177;48.572;7.838;2023-02-28T01:05:57;-0.40;99.90
14192;DHT22;7177;48.572;7.838;2023-02-28T01:08:23;-0.30;99.90
14192;DHT22;7177;48.572;7.838;2023-02-28T01:10:49;-0.50;99.90
14192;DHT22;7177;48.572;7.838;2023-02-28T01:13:15;-0.50;99.90
14192;DHT22;7177;48.572;7.838;2023-02-28T01:15:50;-0.50;99.90
14192;DHT22;7177;48.572;7.838;2023-02-28T01:18:16;-0.50;99.90
14192;DHT22;7177;48.572;7.838;2023-02-28T01:20:42;-0.50;99.90
14192;DHT22;7177;48.572;7.838;2023-02-28T01:23:08;-0.50;99.90
14192;DHT22;7177;48.572;7.838;2023-02-28T01:25:35;-0.50;99.90
14192;DHT22;7177;48.572;7.838;2023-02-28T01:28:01;-0.40;99.90
14192;DHT22;7177;48.572;7.838;2023-02-28T01:30:26;-0.40;99.90
14192;DHT22;7177;48.572;7.838;2023-02-28T01:32:52;-0.40;99.90
14192;DHT22;7177;48.572;7.838;2023-02-28T01:35:18;-0.40;99.90
14192;DHT22;7177;48.572;7.838;2023-02-28T01:37:44;-0.30;99.90
14192;DHT22;7177;48.572;7.838;2023-02-28T01:40:10;-0.30;99.90
14192;DHT22;7177;48.572;7.838;2023-02-28T01:42:36;-0.30;99.90
14192;DHT22;7177;48.572;7.838;2023-02-28T01:47:41;-0.30;99.90
14192;DHT22;7177;48.572;7.838;2023-02-28T01:50:16;-0.20;99.90
14192;DHT22;7177;48.572;7.838;2023-02-28T01:52:44;-0.20;99.90
14192;DHT22;7177;48.572;7.838;2023-02-28T01:55:11;-0.20;99.90
14192;DHT22;7177;48.572;7.838;2023-02-28T01:57:45;-0.20;99.90
14192;DHT22;7177;48.572;7.838;2023-02-28T02:00:13;-0.20;99.90
14192;DHT22;7177;48.572;7.838;2023-02-28T02:02:42;-0.20;99.90
14192;DHT22;7177;48.572;7.838;2023-02-28T02:05:29;-0.20;99.90
14192;DHT22;7177;48.572;7.838;2023-02-28T02:07:58;-0.20;99.90
14192;DHT22;7177;48.572;7.838;2023-02-28T02:10:45;-0.20;99.90
14192;DHT22;7177;48.572;7.838;2023-02-28T02:14:09;-0.20;99.90
14192;DHT22;7177;48.572;7.838;2023-02-28T02:22:07;-0.20;99.90
14192;DHT22;7177;48.572;7.838;2023-02-28T02:27:28;-0.20;99.90
14192;DHT22;7177;48.572;7.838;2023-02-28T02:35:53;-0.20;99.90
14192;DHT22;7177;48.572;7.838;2023-02-28T02:38:32;-0.20;99.90
14192;DHT22;7177;48.572;7.838;2023-02-28T02:41:14;-0.20;99.90
14192;DHT22;7177;48.572;7.838;2023-02-28T02:43:56;-0.30;99.90
14192;DHT22;7177;48.572;7.838;2023-02-28T02:46:28;-0.30;99.90
14192;DHT22;7177;48.572;7.838;2023-02-28T02:48:56;-0.30;99.90
14192;DHT22;7177;48.572;7.838;2023-02-28T02:51:24;-0.30;99.90
14192;DHT22;7177;48.572;7.838;2023-02-28T02:53:54;-0.40;99.90
14192;DHT22;7177;48.572;7.838;2023-02-28T02:56:24;-0.40;99.90
14192;DHT22;7177;48.572;7.838;2023-02-28T02:58:53;-0.40;99.90
14192;DHT22;7177;48.572;7.838;2023-02-28T03:01:23;-0.40;99.90
14192;DHT22;7177;48.572;7.838;2023-02-28T03:03:59;-0.40;99.90
14192;DHT22;7177;48.572;7.838;2023-02-28T03:06:26;-0.50;99.90
14192;DHT22;7177;48.572;7.838;2023-02-28T03:08:52;-0.50;99.90
14192;DHT22;7177;48.572;7.838;2023-02-28T03:11:18;-0.50;99.90
14192;DHT22;7177;48.572;7.838;2023-02-28T03:13:59;-0.60;99.90
14192;DHT22;7177;48.572;7.838;2023-02-28T03:19:44;-0.50;99.90
14192;DHT22;7177;48.572;7.838;2023-02-28T03:22:43;-0.60;99.90
14192;DHT22;7177;48.572;7.838;2023-02-28T03:25:27;-0.60;99.90
14192;DHT22;7177;48.572;7.838;2023-02-28T03:28:08;-0.70;99.90
14192;DHT22;7177;48.572;7.838;2023-02-28T03:33:30;-0.60;99.90
14192;DHT22;7177;48.572;7.838;2023-02-28T03:36:05;-0.60;99.90
14192;DHT22;7177;48.572;7.838;2023-02-28T03:38:38;-0.60;99.90
14192;DHT22;7177;48.572;7.838;2023-02-28T03:41:10;-0.60;99.90
14192;DHT22;7177;48.572;7.838;2023-02-28T03:43:40;-0.70;99.90
14192;DHT22;7177;48.572;7.838;2023-02-28T03:46:11;-0.70;99.90
14192;DHT22;7177;48.572;7.838;2023-02-28T03:48:44;-0.70;99.90
14192;DHT22;7177;48.572;7.838;2023-02-28T03:51:15;-0.70;99.90
14192;DHT22;7177;48.572;7.838;2023-02-28T03:53:50;-0.70;99.90
14192;DHT22;7177;48.572;7.838;2023-02-28T03:56:41;-0.70;99.90
14192;DHT22;7177;48.572;7.838;2023-02-28T03:59:34;-0.80;99.90
14192;DHT22;7177;48.572;7.838;2023-02-28T04:02:00;-0.90;99.90
14192;DHT22;7177;48.572;7.838;2023-02-28T04:04:25;-0.90;99.90
14192;DHT22;7177;48.572;7.838;2023-02-28T04:06:52;-1.00;99.90
14192;DHT22;7177;48.572;7.838;2023-02-28T04:09:18;-1.00;99.90
14192;DHT22;7177;48.572;7.838;2023-02-28T04:11:50;-1.00;99.90
14192;DHT22;7177;48.572;7.838;2023-02-28T04:14:21;-1.00;99.90
14192;DHT22;7177;48.572;7.838;2023-02-28T04:16:46;-1.10;99.90
14192;DHT22;7177;48.572;7.838;2023-02-28T04:19:13;-1.00;99.90
14192;DHT22;7177;48.572;7.838;2023-02-28T04:21:48;-1.10;99.90
14192;DHT22;7177;48.572;7.838;2023-02-28T04:24:16;-1.10;99.90
14192;DHT22;7177;48.572;7.838;2023-02-28T04:26:45;-1.00;99.90
14192;DHT22;7177;48.572;7.838;2023-02-28T04:29:12;-1.20;99.90
14192;DHT22;7177;48.572;7.838;2023-02-28T04:31:39;-1.20;99.90
14192;DHT22;7177;48.572;7.838;2023-02-28T04:34:05;-1.20;99.90
14192;DHT22;7177;48.572;7.838;2023-02-28T04:36:30;-1.20;99.90
14192;DHT22;7177;48.572;7.838;2023-02-28T04:38:56;-1.20;99.90
14192;DHT22;7177;48.572;7.838;2023-02-28T04:41:22;-1.20;99.90
14192;DHT22;7177;48.572;7.838;2023-02-28T04:43:48;-1.20;99.90
14192;DHT22;7177;48.572;7.838;2023-02-28T04:46:14;-1.30;99.90
14192;DHT22;7177;48.572;7.838;2023-02-28T04:48:39;-1.30;99.90
14192;DHT22;7177;48.572;7.838;2023-02-28T04:51:10;-1.30;99.90
14192;DHT22;7177;48.572;7.838;2023-02-28T04:53:40;-1.40;99.90
14192;DHT22;7177;48.572;7.838;2023-02-28T04:56:07;-1.40;99.90
14192;DHT22;7177;48.572;7.838;2023-02-28T04:58:33;-1.40;99.90
14192;DHT22;7177;48.572;7.838;2023-02-28T05:03:28;-1.30;99.90
14192;DHT22;7177;48.572;7.838;2023-02-28T05:05:54;-1.30;99.90
14192;DHT22;7177;48.572;7.838;2023-02-28T05:08:19;-1.30;99.90
14192;DHT22;7177;48.572;7.838;2023-02-28T05:13:14;-1.40;99.90
14192;DHT22;7177;48.572;7.838;2023-02-28T05:15:39;-1.40;99.90
14192;DHT22;7177;48.572;7.838;2023-02-28T05:18:05;-1.40;99.90
14192;DHT22;7177;48.572;7.838;2023-02-28T05:20:31;-1.40;99.90
14192;DHT22;7177;48.572;7.838;2023-02-28T05:22:58;-1.40;99.90
14192;DHT22;7177;48.572;7.838;2023-02-28T05:25:24;-1.30;99.90
14192;DHT22;7177;48.572;7.838;2023-02-28T05:27:50;-1.30;99.90
14192;DHT22;7177;48.572;7.838;2023-02-28T05:30:16;-1.30;99.90
14192;DHT22;7177;48.572;7.838;2023-02-28T05:32:41;-1.30;99.90
14192;DHT22;7177;48.572;7.838;2023-02-28T05:35:11;-1.30;99.90
14192;DHT22;7177;48.572;7.838;2023-02-28T05:37:38;-1.30;99.90
14192;DHT22;7177;48.572;7.838;2023-02-28T05:40:05;-1.10;99.90
14192;DHT22;7177;48.572;7.838;2023-02-28T05:42:36;-1.10;99.90
14192;DHT22;7177;48.572;7.838;2023-02-28T05:45:02;-1.00;99.90
14192;DHT22;7177;48.572;7.838;2023-02-28T05:47:28;-1.00;99.90
14192;DHT22;7177;48.572;7.838;2023-02-28T05:49:53;-1.10;99.90
14192;DHT22;7177;48.572;7.838;2023-02-28T05:54:46;-1.10;99.90
14192;DHT22;7177;48.572;7.838;2023-02-28T05:57:12;-1.10;99.90
14192;DHT22;7177;48.572;7.838;2023-02-28T05:59:37;-1.10;99.90
14192;DHT22;7177;48.572;7.838;2023-02-28T06:02:05;-1.10;99.90
14192;DHT22;7177;48.572;7.838;2023-02-28T06:04:31;-1.10;99.90
14192;DHT22;7177;48.572;7.838;2023-02-28T06:06:56;-1.00;99.90
14192;DHT22;7177;48.572;7.838;2023-02-28T06:09:22;-1.00;99.90
14192;DHT22;7177;48.572;7.838;2023-02-28T06:11:48;-0.90;99.90
14192;DHT22;7177;48.572;7.838;2023-02-28T06:14:18;-0.90;99.90
14192;DHT22;7177;48.572;7.838;2023-02-28T06:16:44;-0.90;99.90
14192;DHT22;7177;48.572;7.838;2023-02-28T06:19:10;-0.90;99.90
14192;DHT22;7177;48.572;7.838;2023-02-28T06:21:37;-0.90;99.90
14192;DHT22;7177;48.572;7.838;2023-02-28T06:24:03;-0.90;99.90
14192;DHT22;7177;48.572;7.838;2023-02-28T06:28:55;-0.80;99.90
14192;DHT22;7177;48.572;7.838;2023-02-28T06:31:20;-0.80;99.90
14192;DHT22;7177;48.572;7.838;2023-02-28T06:36:15;-0.80;99.90
14192;DHT22;7177;48.572;7.838;2023-02-28T06:38:41;-0.80;99.90
14192;DHT22;7177;48.572;7.838;2023-02-28T06:41:07;-0.90;99.90
14192;DHT22;7177;48.572;7.838;2023-02-28T06:43:35;-0.80;99.90
14192;DHT22;7177;48.572;7.838;2023-02-28T06:46:03;-0.80;99.90
14192;DHT22;7177;48.572;7.838;2023-02-28T06:48:29;-0.80;99.90
14192;DHT22;7177;48.572;7.838;2023-02-28T06:51:08;-0.90;99.90
14192;DHT22;7177;48.572;7.838;2023-02-28T06:53:34;-0.80;99.90
14192;DHT22;7177;48.572;7.838;2023-02-28T06:56:07;-0.80;99.90
14192;DHT22;7177;48.572;7.838;2023-02-28T06:58:33;-0.80;99.90
14192;DHT22;7177;48.572;7.838;2023-02-28T07:00:59;-0.80;99.90
14192;DHT22;7177;48.572;7.838;2023-02-28T07:03:24;-0.70;99.90
14192;DHT22;7177;48.572;7.838;2023-02-28T07:05:50;-0.70;99.90
14192;DHT22;7177;48.572;7.838;2023-02-28T07:08:16;-0.70;99.90
14192;DHT22;7177;48.572;7.838;2023-02-28T07:10:41;-0.70;99.90
14192;DHT22;7177;48.572;7.838;2023-02-28T07:13:08;-0.60;99.90
14192;DHT22;7177;48.572;7.838;2023-02-28T07:15:34;-0.60;99.90
14192;DHT22;7177;48.572;7.838;2023-02-28T07:18:00;-0.60;99.90
14192;DHT22;7177;48.572;7.838;2023-02-28T07:20:25;-0.60;99.90
14192;DHT22;7177;48.572;7.838;2023-02-28T07:22:51;-0.60;99.90
14192;DHT22;7177;48.572;7.838;2023-02-28T07:25:26;-0.60;99.90
14192;DHT22;7177;48.572;7.838;2023-02-28T07:27:53;-0.50;99.90
14192;DHT22;7177;48.572;7.838;2023-02-28T07:30:18;-0.50;99.90
14192;DHT22;7177;48.572;7.838;2023-02-28T07:32:44;-0.40;99.90
14192;DHT22;7177;48.572;7.838;2023-02-28T07:35:09;-0.50;99.90
14192;DHT22;7177;48.572;7.838;2023-02-28T07:37:35;-0.50;99.90
14192;DHT22;7177;48.572;7.838;2023-02-28T07:40:03;-0.50;99.90
14192;DHT22;7177;48.572;7.838;2023-02-28T07:42:31;-0.50;99.90
14192;DHT22;7177;48.572;7.838;2023-02-28T07:44:57;-0.40;99.90
14192;DHT22;7177;48.572;7.838;2023-02-28T07:47:24;-0.30;99.90
14192;DHT22;7177;48.572;7.838;2023-02-28T07:49:49;-0.40;99.90
14192;DHT22;7177;48.572;7.838;2023-02-28T07:52:15;-0.30;99.90
14192;DHT22;7177;48.572;7.838;2023-02-28T07:54:40;-0.30;99.90
14192;DHT22;7177;48.572;7.838;2023-02-28T07:57:06;-0.30;99.90
14192;DHT22;7177;48.572;7.838;2023-02-28T07:59:31;-0.30;99.90
14192;DHT22;7177;48.572;7.838;2023-02-28T08:01:57;-0.30;99.90
14192;DHT22;7177;48.572;7.838;2023-02-28T08:04:23;-0.30;99.90
14192;DHT22;7177;48.572;7.838;2023-02-28T08:06:49;-0.30;99.90
14192;DHT22;7177;48.572;7.838;2023-02-28T08:09:17;-0.30;99.90
14192;DHT22;7177;48.572;7.838;2023-02-28T08:11:42;-0.30;99.90
14192;DHT22;7177;48.572;7.838;2023-02-28T08:14:09;-0.20;99.90
14192;DHT22;7177;48.572;7.838;2023-02-28T08:16:34;-0.20;99.90
14192;DHT22;7177;48.572;7.838;2023-02-28T08:19:00;-0.10;99.90
14192;DHT22;7177;48.572;7.838;2023-02-28T08:21:26;-0.10;99.90
14192;DHT22;7177;48.572;7.838;2023-02-28T08:23:51;-0.10;99.90
14192;DHT22;7177;48.572;7.838;2023-02-28T08:26:17;0.00;99.90
14192;DHT22;7177;48.572;7.838;2023-02-28T08:28:43;0.00;99.90
14192;DHT22;7177;48.572;7.838;2023-02-28T08:31:11;0.00;99.90
14192;DHT22;7177;48.572;7.838;2023-02-28T08:33:37;0.00;99.90
14192;DHT22;7177;48.572;7.838;2023-02-28T08:36:05;0.10;99.90
14192;DHT22;7177;48.572;7.838;2023-02-28T08:38:31;0.10;99.90
14192;DHT22;7177;48.572;7.838;2023-02-28T08:41:01;0.20;99.90
14192;DHT22;7177;48.572;7.838;2023-02-28T08:43:28;0.30;99.90
14192;DHT22;7177;48.572;7.838;2023-02-28T08:45:55;0.20;99.90
14192;DHT22;7177;48.572;7.838;2023-02-28T08:48:22;0.30;99.90
14192;DHT22;7177;48.572;7.838;2023-02-28T08:50:59;0.40;99.90
14192;DHT22;7177;48.572;7.838;2023-02-28T08:53:24;0.40;99.90
14192;DHT22;7177;48.572;7.838;2023-02-28T08:56:01;0.40;99.90
14192;DHT22;7177;48.572;7.838;2023-02-28T08:58:27;0.40;99.90
14192;DHT22;7177;48.572;7.838;2023-02-28T09:00:53;0.40;99.90
14192;DHT22;7177;48.572;7.838;2023-02-28T09:03:20;0.40;99.90
14192;DHT22;7177;48.572;7.838;2023-02-28T09:05:59;0.40;99.90
14192;DHT22;7177;48.572;7.838;2023-02-28T09:08:27;0.40;99.90
14192;DHT22;7177;48.572;7.838;2023-02-28T09:10:52;0.40;99.90
14192;DHT22;7177;48.572;7.838;2023-02-28T09:13:19;0.40;99.90
14192;DHT22;7177;48.572;7.838;2023-02-28T09:15:45;0.50;99.90
14192;DHT22;7177;48.572;7.838;2023-02-28T09:18:10;0.50;99.90
14192;DHT22;7177;48.572;7.838;2023-02-28T09:20:43;0.50;99.90
14192;DHT22;7177;48.572;7.838;2023-02-28T09:23:10;0.50;99.90
14192;DHT22;7177;48.572;7.838;2023-02-28T09:25:36;0.60;99.90
14192;DHT22;7177;48.572;7.838;2023-02-28T09:28:02;0.50;99.90
14192;DHT22;7177;48.572;7.838;2023-02-28T09:30:28;0.60;99.90
14192;DHT22;7177;48.572;7.838;2023-02-28T09:32:54;0.60;99.90
14192;DHT22;7177;48.572;7.838;2023-02-28T09:35:20;0.60;99.90
14192;DHT22;7177;48.572;7.838;2023-02-28T09:37:50;0.80;99.90
14192;DHT22;7177;48.572;7.838;2023-02-28T09:40:17;0.60;99.90
14192;DHT22;7177;48.572;7.838;2023-02-28T09:42:46;0.60;99.90
14192;DHT22;7177;48.572;7.838;2023-02-28T09:47:52;0.70;99.90
14192;DHT22;7177;48.572;7.838;2023-02-28T09:52:52;0.70;99.90
14192;DHT22;7177;48.572;7.838;2023-02-28T09:57:53;0.80;99.90
14192;DHT22;7177;48.572;7.838;2023-02-28T10:00:28;0.90;99.90
14192;DHT22;7177;48.572;7.838;2023-02-28T10:03:04;0.80;99.90
14192;DHT22;7177;48.572;7.838;2023-02-28T10:08:36;0.90;99.90
14192;DHT22;7177;48.572;7.838;2023-02-28T10:11:09;1.00;99.90
14192;DHT22;7177;48.572;7.838;2023-02-28T10:13:52;1.00;99.90
14192;DHT22;7177;48.572;7.838;2023-02-28T10:16:27;1.10;99.90
14192;DHT22;7177;48.572;7.838;2023-02-28T10:18:56;1.30;99.90
14192;DHT22;7177;48.572;7.838;2023-02-28T10:23:53;1.30;99.90
14192;DHT22;7177;48.572;7.838;2023-02-28T10:26:21;1.20;99.90
14192;DHT22;7177;48.572;7.838;2023-02-28T10:28:51;1.30;99.90
14192;DHT22;7177;48.572;7.838;2023-02-28T10:31:19;1.20;99.90
14192;DHT22;7177;48.572;7.838;2023-02-28T10:33:45;1.40;99.90
14192;DHT22;7177;48.572;7.838;2023-02-28T10:36:17;1.20;99.90
14192;DHT22;7177;48.572;7.838;2023-02-28T10:38:44;1.30;99.90
14192;DHT22;7177;48.572;7.838;2023-02-28T10:41:15;1.30;99.90
14192;DHT22;7177;48.572;7.838;2023-02-28T10:43:43;1.30;99.90
14192;DHT22;7177;48.572;7.838;2023-02-28T10:46:14;1.40;99.90
14192;DHT22;7177;48.572;7.838;2023-02-28T10:48:57;1.40;99.90
14192;DHT22;7177;48.572;7.838;2023-02-28T10:51:24;1.40;99.90
14192;DHT22;7177;48.572;7.838;2023-02-28T10:53:52;1.40;99.90
14192;DHT22;7177;48.572;7.838;2023-02-28T10:56:25;1.60;99.90
14192;DHT22;7177;48.572;7.838;2023-02-28T10:58:58;1.50;99.90
14192;DHT22;7177;48.572;7.838;2023-02-28T11:01:42;1.60;99.90
14192;DHT22;7177;48.572;7.838;2023-02-28T11:04:32;1.80;99.90
14192;DHT22;7177;48.572;7.838;2023-02-28T11:07:22;1.80;99.90
14192;DHT22;7177;48.572;7.838;2023-02-28T11:09:55;1.80;99.90
14192;DHT22;7177;48.572;7.838;2023-02-28T11:12:38;1.90;99.90
14192;DHT22;7177;48.572;7.838;2023-02-28T11:15:18;1.80;99.90
14192;DHT22;7177;48.572;7.838;2023-02-28T11:17:54;1.90;99.90
14192;DHT22;7177;48.572;7.838;2023-02-28T11:20:23;2.00;99.90
14192;DHT22;7177;48.572;7.838;2023-02-28T11:22:51;1.90;99.90
14192;DHT22;7177;48.572;7.838;2023-02-28T11:25:28;2.00;99.90
14192;DHT22;7177;48.572;7.838;2023-02-28T11:27:59;2.00;99.90
14192;DHT22;7177;48.572;7.838;2023-02-28T11:30:36;2.00;99.90
14192;DHT22;7177;48.572;7.838;2023-02-28T11:33:29;2.10;99.90
14192;DHT22;7177;48.572;7.838;2023-02-28T11:36:03;2.20;99.90
14192;DHT22;7177;48.572;7.838;2023-02-28T11:38:29;2.30;99.90
14192;DHT22;7177;48.572;7.838;2023-02-28T11:41:54;2.40;99.90
14192;DHT22;7177;48.572;7.838;2023-02-28T11:43:54;2.30;99.90
14192;DHT22;7177;48.572;7.838;2023-02-28T11:46:39;2.40;99.90
14192;DHT22;7177;48.572;7.838;2023-02-28T11:54:41;2.50;99.90
14192;DHT22;7177;48.572;7.838;2023-02-28T12:00:17;2.60;99.90
14192;DHT22;7177;48.572;7.838;2023-02-28T12:03:16;2.60;99.90
14192;DHT22;7177;48.572;7.838;2023-02-28T12:05:46;2.70;99.90
14192;DHT22;7177;48.572;7.838;2023-02-28T12:11:00;2.90;99.90
14192;DHT22;7177;48.572;7.838;2023-02-28T12:27:47;3.20;99.90
14192;DHT22;7177;48.572;7.838;2023-02-28T12:30:32;3.30;99.90
14192;DHT22;7177;48.572;7.838;2023-02-28T12:33:09;3.40;99.90
14192;DHT22;7177;48.572;7.838;2023-02-28T12:35:55;3.40;99.90
14192;DHT22;7177;48.572;7.838;2023-02-28T12:38:24;3.40;99.90
14192;DHT22;7177;48.572;7.838;2023-02-28T12:41:16;3.50;99.90
14192;DHT22;7177;48.572;7.838;2023-02-28T12:44:00;3.60;99.90
14192;DHT22;7177;48.572;7.838;2023-02-28T12:46:32;3.70;99.90
14192;DHT22;7177;48.572;7.838;2023-02-28T12:49:05;3.60;99.90
14192;DHT22;7177;48.572;7.838;2023-02-28T12:51:32;3.70;99.90
14192;DHT22;7177;48.572;7.838;2023-02-28T12:57:09;3.90;99.90
14192;DHT22;7177;48.572;7.838;2023-02-28T12:59:38;4.00;99.90
14192;DHT22;7177;48.572;7.838;2023-02-28T13:08:20;4.30;99.90
14192;DHT22;7177;48.572;7.838;2023-02-28T13:10:50;4.40;99.90
14192;DHT22;7177;48.572;7.838;2023-02-28T13:13:22;4.40;99.90
14192;DHT22;7177;48.572;7.838;2023-02-28T13:16:09;4.50;99.90
14192;DHT22;7177;48.572;7.838;2023-02-28T13:18:40;4.50;99.90
14192;DHT22;7177;48.572;7.838;2023-02-28T13:21:09;4.60;99.90
14192;DHT22;7177;48.572;7.838;2023-02-28T13:24:02;4.80;99.90
14192;DHT22;7177;48.572;7.838;2023-02-28T13:29:21;5.40;99.90
14192;DHT22;7177;48.572;7.838;2023-02-28T13:32:54;5.50;99.90
14192;DHT22;7177;48.572;7.838;2023-02-28T13:37:36;5.60;99.90
14192;DHT22;7177;48.572;7.838;2023-02-28T13:40:33;5.60;99.90
14192;DHT22;7177;48.572;7.838;2023-02-28T13:43:03;5.60;99.90
14192;DHT22;7177;48.572;7.838;2023-02-28T13:45:32;5.50;99.90
14192;DHT22;7177;48.572;7.838;2023-02-28T13:48:15;5.50;99.90
14192;DHT22;7177;48.572;7.838;2023-02-28T13:50:42;5.40;99.90
14192;DHT22;7177;48.572;7.838;2023-02-28T13:58:46;6.70;99.90
14192;DHT22;7177;48.572;7.838;2023-02-28T14:01:38;7.30;99.90
14192;DHT22;7177;48.572;7.838;2023-02-28T14:04:40;7.60;99.90
14192;DHT22;7177;48.572;7.838;2023-02-28T14:07:09;8.10;99.20
14192;DHT22;7177;48.572;7.838;2023-02-28T14:09:46;8.30;96.50
14192;DHT22;7177;48.572;7.838;2023-02-28T14:15:34;7.90;96.20
14192;DHT22;7177;48.572;7.838;2023-02-28T14:18:03;7.70;96.80
14192;DHT22;7177;48.572;7.838;2023-02-28T14:20:32;7.50;96.60
14192;DHT22;7177;48.572;7.838;2023-02-28T14:25:41;7.60;97.00
14192;DHT22;7177;48.572;7.838;2023-02-28T14:31:43;8.10;94.40
14192;DHT22;7177;48.572;7.838;2023-02-28T14:34:31;8.30;94.40
14192;DHT22;7177;48.572;7.838;2023-02-28T14:37:02;8.60;94.30
14192;DHT22;7177;48.572;7.838;2023-02-28T14:39:28;8.70;93.30
14192;DHT22;7177;48.572;7.838;2023-02-28T14:41:59;8.70;93.20
14192;DHT22;7177;48.572;7.838;2023-02-28T14:44:30;8.80;93.90
14192;DHT22;7177;48.572;7.838;2023-02-28T14:46:58;8.90;93.00
14192;DHT22;7177;48.572;7.838;2023-02-28T14:49:28;9.00;92.90
14192;DHT22;7177;48.572;7.838;2023-02-28T14:54:36;9.40;92.90
14192;DHT22;7177;48.572;7.838;2023-02-28T14:57:02;9.20;93.30
14192;DHT22;7177;48.572;7.838;2023-02-28T14:59:33;9.10;92.50
14192;DHT22;7177;48.572;7.838;2023-02-28T15:02:22;9.10;92.10
14192;DHT22;7177;48.572;7.838;2023-02-28T15:05:01;8.60;92.10
14192;DHT22;7177;48.572;7.838;2023-02-28T15:07:26;8.50;93.70
14192;DHT22;7177;48.572;7.838;2023-02-28T15:10:26;8.30;94.10
14192;DHT22;7177;48.572;7.838;2023-02-28T15:12:55;8.60;93.70
14192;DHT22;7177;48.572;7.838;2023-02-28T15:15:32;8.80;93.70
14192;DHT22;7177;48.572;7.838;2023-02-28T15:18:03;8.90;93.80
14192;DHT22;7177;48.572;7.838;2023-02-28T15:20:32;8.80;93.60
14192;DHT22;7177;48.572;7.838;2023-02-28T15:22:58;8.60;92.50
14192;DHT22;7177;48.572;7.838;2023-02-28T15:25:24;8.40;93.30
14192;DHT22;7177;48.572;7.838;2023-02-28T15:27:53;8.30;92.90
14192;DHT22;7177;48.572;7.838;2023-02-28T15:30:30;8.20;93.50
14192;DHT22;7177;48.572;7.838;2023-02-28T15:33:19;8.10;94.20
14192;DHT22;7177;48.572;7.838;2023-02-28T15:35:45;8.10;93.90
14192;DHT22;7177;48.572;7.838;2023-02-28T15:38:27;8.10;94.10
14192;DHT22;7177;48.572;7.838;2023-02-28T15:40:57;7.90;94.70
14192;DHT22;7177;48.572;7.838;2023-02-28T15:43:31;7.70;95.40
14192;DHT22;7177;48.572;7.838;2023-02-28T15:46:05;7.60;96.20
14192;DHT22;7177;48.572;7.838;2023-02-28T15:48:53;7.80;96.00
14192;DHT22;7177;48.572;7.838;2023-02-28T15:51:24;7.80;95.30
14192;DHT22;7177;48.572;7.838;2023-02-28T15:53:54;7.60;95.70
14192;DHT22;7177;48.572;7.838;2023-02-28T15:56:25;7.30;96.50
14192;DHT22;7177;48.572;7.838;2023-02-28T15:58:54;7.10;97.70
14192;DHT22;7177;48.572;7.838;2023-02-28T16:01:25;7.00;97.60
14192;DHT22;7177;48.572;7.838;2023-02-28T16:03:53;7.00;97.80
14192;DHT22;7177;48.572;7.838;2023-02-28T16:06:33;6.80;98.80
14192;DHT22;7177;48.572;7.838;2023-02-28T16:08:59;6.70;98.50
14192;DHT22;7177;48.572;7.838;2023-02-28T16:11:24;6.50;99.10
14192;DHT22;7177;48.572;7.838;2023-02-28T16:13:50;6.40;99.90
14192;DHT22;7177;48.572;7.838;2023-02-28T16:16:22;6.10;99.90
14192;DHT22;7177;48.572;7.838;2023-02-28T16:18:49;6.00;99.90
14192;DHT22;7177;48.572;7.838;2023-02-28T16:21:16;5.80;99.90
14192;DHT22;7177;48.572;7.838;2023-02-28T16:23:41;5.70;99.90
14192;DHT22;7177;48.572;7.838;2023-02-28T16:26:07;5.70;99.90
14192;DHT22;7177;48.572;7.838;2023-02-28T16:28:35;5.50;99.90
14192;DHT22;7177;48.572;7.838;2023-02-28T16:31:04;5.50;99.90
14192;DHT22;7177;48.572;7.838;2023-02-28T16:33:31;5.40;99.90
14192;DHT22;7177;48.572;7.838;2023-02-28T16:35:57;5.40;99.90
14192;DHT22;7177;48.572;7.838;2023-02-28T16:38:23;5.30;99.90
14192;DHT22;7177;48.572;7.838;2023-02-28T16:40:50;5.30;99.90
14192;DHT22;7177;48.572;7.838;2023-02-28T16:43:19;5.20;99.90
14192;DHT22;7177;48.572;7.838;2023-02-28T16:45:47;5.20;99.90
14192;DHT22;7177;48.572;7.838;2023-02-28T16:48:15;5.10;99.90
14192;DHT22;7177;48.572;7.838;2023-02-28T16:50:41;5.00;99.90
14192;DHT22;7177;48.572;7.838;2023-02-28T16:53:07;5.00;99.90
14192;DHT22;7177;48.572;7.838;2023-02-28T16:55:34;4.90;99.90
14192;DHT22;7177;48.572;7.838;2023-02-28T16:58:01;4.80;99.90
14192;DHT22;7177;48.572;7.838;2023-02-28T17:00:28;4.70;99.90
14192;DHT22;7177;48.572;7.838;2023-02-28T17:02:55;4.70;99.90
14192;DHT22;7177;48.572;7.838;2023-02-28T17:05:21;4.60;99.90
14192;DHT22;7177;48.572;7.838;2023-02-28T17:07:48;4.50;99.90
14192;DHT22;7177;48.572;7.838;2023-02-28T17:12:39;4.40;99.90
14192;DHT22;7177;48.572;7.838;2023-02-28T17:15:05;4.30;99.90
14192;DHT22;7177;48.572;7.838;2023-02-28T17:17:31;4.30;99.90
14192;DHT22;7177;48.572;7.838;2023-02-28T17:19:57;4.30;99.90
14192;DHT22;7177;48.572;7.838;2023-02-28T17:22:23;4.10;99.90
14192;DHT22;7177;48.572;7.838;2023-02-28T17:24:48;4.10;99.90
14192;DHT22;7177;48.572;7.838;2023-02-28T17:27:14;4.00;99.90
14192;DHT22;7177;48.572;7.838;2023-02-28T17:29:39;4.00;99.90
14192;DHT22;7177;48.572;7.838;2023-02-28T17:32:05;4.00;99.90
14192;DHT22;7177;48.572;7.838;2023-02-28T17:34:31;4.00;99.90
14192;DHT22;7177;48.572;7.838;2023-02-28T17:36:56;4.00;99.90
14192;DHT22;7177;48.572;7.838;2023-02-28T17:39:21;3.90;99.90
14192;DHT22;7177;48.572;7.838;2023-02-28T17:41:51;3.80;99.90
14192;DHT22;7177;48.572;7.838;2023-02-28T17:44:17;3.80;99.90
14192;DHT22;7177;48.572;7.838;2023-02-28T17:46:43;3.80;99.90
14192;DHT22;7177;48.572;7.838;2023-02-28T17:49:10;3.70;99.90
14192;DHT22;7177;48.572;7.838;2023-02-28T17:51:35;3.60;99.90
14192;DHT22;7177;48.572;7.838;2023-02-28T17:54:01;3.60;99.90
14192;DHT22;7177;48.572;7.838;2023-02-28T17:56:26;3.70;99.90
14192;DHT22;7177;48.572;7.838;2023-02-28T17:58:54;3.60;99.90
14192;DHT22;7177;48.572;7.838;2023-02-28T18:01:20;3.50;99.90